sensor_id;sensor_type;location;lat;lon;timestamp;pressure;altitude;pressure_sealevel;temperature;humidity
12763;BME280;6445;52.490;13.378;2023-07-28T00:02:15;118418.47;;;-146.10;100.00
12763;BME280;6445;52.490;13.378;2023-07-28T00:04:40;118418.47;;;-146.10;100.00
12763;BME280;6445;52.490;13.378;2023-07-28T00:07:06;118418.47;;;-146.10;100.00
12763;BME280;6445;52.490;13.378;2023-07-28T00:09:31;118418.47;;;-146.10;100.00
12763;BME280;6445;52.490;13.378;2023-07-28T00:11:57;118418.47;;;-146.10;100.00
12763;BME280;6445;52.490;13.378;2023-07-28T00:14:23;118418.47;;;-146.10;100.00
12763;BME280;6445;52.490;13.378;2023-07-28T00:16:50;118418.47;;;-146.10;100.00
12763;BME280;6445;52.490;13.378;2023-07-28T00:19:15;118418.47;;;-146.10;100.00
12763;BME280;6445;52.490;13.378;2023-07-28T00:21:40;118418.47;;;-146.10;100.00
12763;BME280;6445;52.490;13.378;2023-07-28T00:24:06;118418.47;;;-146.10;100.00
12763;BME280;6445;52.490;13.378;2023-07-28T00:26:31;118418.47;;;-146.10;100.00
12763;BME280;6445;52.490;13.378;2023-07-28T00:28:56;118418.47;;;-146.10;100.00
12763;BME280;6445;52.490;13.378;2023-07-28T00:31:23;118418.47;;;-146.10;100.00
12763;BME280;6445;52.490;13.378;2023-07-28T00:33:48;118418.47;;;-146.10;100.00
12763;BME280;6445;52.490;13.378;2023-07-28T00:36:13;118418.47;;;-146.10;100.00
12763;BME280;6445;52.490;13.378;2023-07-28T00:38:38;118418.47;;;-146.10;100.00
12763;BME280;6445;52.490;13.378;2023-07-28T00:41:04;118418.47;;;-146.10;100.00
12763;BME280;6445;52.490;13.378;2023-07-28T00:43:29;118418.47;;;-146.10;100.00
12763;BME280;6445;52.490;13.378;2023-07-28T00:45:54;118418.47;;;-146.10;100.00
12763;BME280;6445;52.490;13.378;2023-07-28T00:48:19;118418.47;;;-146.10;100.00
12763;BME280;6445;52.490;13.378;2023-07-28T00:50:47;118418.47;;;-146.10;100.00
12763;BME280;6445;52.490;13.378;2023-07-28T00:53:12;118418.47;;;-146.10;100.00
12763;BME280;6445;52.490;13.378;2023-07-28T00:55:38;118418.47;;;-146.10;100.00
12763;BME280;6445;52.490;13.378;2023-07-28T00:58:04;118418.47;;;-146.10;100.00
12763;BME280;6445;52.490;13.378;2023-07-28T01:00:29;118418.47;;;-146.10;100.00
12763;BME280;6445;52.490;13.378;2023-07-28T01:02:55;118418.47;;;-146.10;100.00
12763;BME280;6445;52.490;13.378;2023-07-28T01:05:22;118418.47;;;-146.10;100.00
12763;BME280;6445;52.490;13.378;2023-07-28T01:07:58;118418.47;;;-146.10;100.00
12763;BME280;6445;52.490;13.378;2023-07-28T01:10:31;118418.47;;;-146.10;100.00
12763;BME280;6445;52.490;13.378;2023-07-28T01:12:57;118418.47;;;-146.10;100.00
12763;BME280;6445;52.490;13.378;2023-07-28T01:15:22;118418.47;;;-146.10;100.00
12763;BME280;6445;52.490;13.378;2023-07-28T01:17:47;118418.47;;;-146.10;100.00
12763;BME280;6445;52.490;13.378;2023-07-28T01:20:13;118418.47;;;-146.10;100.00
12763;BME280;6445;52.490;13.378;2023-07-28T01:23:00;118418.47;;;-146.10;100.00
12763;BME280;6445;52.490;13.378;2023-07-28T01:28:15;118418.47;;;-146.10;100.00
12763;BME280;6445;52.490;13.378;2023-07-28T01:30:41;118418.47;;;-146.10;100.00
12763;BME280;6445;52.490;13.378;2023-07-28T01:33:07;118418.47;;;-146.10;100.00
12763;BME280;6445;52.490;13.378;2023-07-28T01:35:35;118418.47;;;-146.10;100.00
12763;BME280;6445;52.490;13.378;2023-07-28T01:38:01;118418.47;;;-146.10;100.00
12763;BME280;6445;52.490;13.378;2023-07-28T01:40:26;118418.47;;;-146.10;100.00
12763;BME280;6445;52.490;13.378;2023-07-28T01:42:51;118418.47;;;-146.10;100.00
12763;BME280;6445;52.490;13.378;2023-07-28T01:45:16;118418.47;;;-146.10;100.00
12763;BME280;6445;52.490;13.378;2023-07-28T01:47:42;118418.47;;;-146.10;100.00
12763;BME280;6445;52.490;13.378;2023-07-28T01:50:07;118418.47;;;-146.10;100.00
12763;BME280;6445;52.490;13.378;2023-07-28T01:52:32;118418.47;;;-146.10;100.00
12763;BME280;6445;52.490;13.378;2023-07-28T01:54:58;118418.47;;;-146.10;100.00
12763;BME280;6445;52.490;13.378;2023-07-28T01:57:23;118418.47;;;-146.10;100.00
12763;BME280;6445;52.490;13.378;2023-07-28T01:59:52;118418.47;;;-146.10;100.00
12763;BME280;6445;52.490;13.378;2023-07-28T02:02:17;118418.47;;;-146.10;100.00
12763;BME280;6445;52.490;13.378;2023-07-28T02:04:42;118418.47;;;-146.10;100.00
12763;BME280;6445;52.490;13.378;2023-07-28T02:07:07;118418.47;;;-146.10;100.00
12763;BME280;6445;52.490;13.378;2023-07-28T02:09:33;118418.47;;;-146.10;100.00
12763;BME280;6445;52.490;13.378;2023-07-28T02:11:58;118418.47;;;-146.10;100.00
12763;BME280;6445;52.490;13.378;2023-07-28T02:14:23;118418.47;;;-146.10;100.00
12763;BME280;6445;52.490;13.378;2023-07-28T02:16:48;118418.47;;;-146.10;100.00
12763;BME280;6445;52.490;13.378;2023-07-28T02:19:14;118418.47;;;-146.10;100.00
12763;BME280;6445;52.490;13.378;2023-07-28T02:21:39;118418.47;;;-146.10;100.00
12763;BME280;6445;52.490;13.378;2023-07-28T02:24:04;118418.47;;;-146.10;100.00
12763;BME280;6445;52.490;13.378;2023-07-28T02:26:29;118418.47;;;-146.10;100.00
12763;BME280;6445;52.490;13.378;2023-07-28T02:28:55;118418.47;;;-146.10;100.00
12763;BME280;6445;52.490;13.378;2023-07-28T02:31:20;118418.47;;;-146.10;100.00
12763;BME280;6445;52.490;13.378;2023-07-28T02:33:45;118418.47;;;-146.10;100.00
12763;BME280;6445;52.490;13.378;2023-07-28T02:36:10;118418.47;;;-146.10;100.00
12763;BME280;6445;52.490;13.378;2023-07-28T02:38:36;118418.47;;;-146.10;100.00
12763;BME280;6445;52.490;13.378;2023-07-28T02:41:01;118418.47;;;-146.10;100.00
12763;BME280;6445;52.490;13.378;2023-07-28T02:43:28;118418.47;;;-146.10;100.00
12763;BME280;6445;52.490;13.378;2023-07-28T02:45:54;118418.47;;;-146.10;100.00
12763;BME280;6445;52.490;13.378;2023-07-28T02:48:20;118418.47;;;-146.10;100.00
12763;BME280;6445;52.490;13.378;2023-07-28T02:50:47;118418.47;;;-146.10;100.00
12763;BME280;6445;52.490;13.378;2023-07-28T02:53:13;118418.47;;;-146.10;100.00
12763;BME280;6445;52.490;13.378;2023-07-28T02:55:42;118418.47;;;-146.10;100.00
12763;BME280;6445;52.490;13.378;2023-07-28T02:58:07;118418.47;;;-146.10;100.00
12763;BME280;6445;52.490;13.378;2023-07-28T03:00:33;118418.47;;;-146.10;100.00
12763;BME280;6445;52.490;13.378;2023-07-28T03:02:58;118418.47;;;-146.10;100.00
12763;BME280;6445;52.490;13.378;2023-07-28T03:05:23;118416.44;;;-146.10;100.00
12763;BME280;6445;52.490;13.378;2023-07-28T03:07:48;118416.44;;;-146.10;100.00
12763;BME280;6445;52.490;13.378;2023-07-28T03:10:14;118416.44;;;-146.10;100.00
12763;BME280;6445;52.490;13.378;2023-07-28T03:12:41;118416.44;;;-146.10;100.00
12763;BME280;6445;52.490;13.378;2023-07-28T03:15:07;118416.44;;;-146.10;100.00
12763;BME280;6445;52.490;13.378;2023-07-28T03:17:32;118156.13;;;-146.10;100.00
12763;BME280;6445;52.490;13.378;2023-07-28T03:19:57;118156.13;;;-146.10;100.00
12763;BME280;6445;52.490;13.378;2023-07-28T03:22:23;118156.13;;;-146.10;100.00
12763;BME280;6445;52.490;13.378;2023-07-28T03:24:48;117895.81;;;-146.10;100.00
12763;BME280;6445;52.490;13.378;2023-07-28T03:27:13;118156.13;;;-146.10;100.00
12763;BME280;6445;52.490;13.378;2023-07-28T03:29:38;117895.81;;;-146.10;100.00
12763;BME280;6445;52.490;13.378;2023-07-28T03:32:04;117895.81;;;-146.10;100.00
12763;BME280;6445;52.490;13.378;2023-07-28T03:34:29;117895.81;;;-146.10;100.00
12763;BME280;6445;52.490;13.378;2023-07-28T03:36:55;117635.53;;;-146.10;100.00
12763;BME280;6445;52.490;13.378;2023-07-28T03:39:20;117375.28;;;-146.10;100.00
12763;BME280;6445;52.490;13.378;2023-07-28T03:41:45;117375.28;;;-146.10;100.00
12763;BME280;6445;52.490;13.378;2023-07-28T03:44:10;117115.03;;;-146.10;100.00
12763;BME280;6445;52.490;13.378;2023-07-28T03:46:36;116594.56;;;-146.10;100.00
12763;BME280;6445;52.490;13.378;2023-07-28T03:49:01;116594.56;;;-146.10;100.00
12763;BME280;6445;52.490;13.378;2023-07-28T03:51:26;117375.28;;;-146.10;100.00
12763;BME280;6445;52.490;13.378;2023-07-28T03:53:51;116334.38;;;-146.10;100.00
12763;BME280;6445;52.490;13.378;2023-07-28T03:56:17;116074.19;;;-146.10;100.00
12763;BME280;6445;52.490;13.378;2023-07-28T03:58:42;115553.88;;;-146.10;100.00
12763;BME280;6445;52.490;13.378;2023-07-28T04:01:07;116334.38;;;-146.10;100.00
12763;BME280;6445;52.490;13.378;2023-07-28T04:03:34;115814.03;;;-146.10;100.00
12763;BME280;6445;52.490;13.378;2023-07-28T04:06:00;115553.88;;;-146.10;100.00
12763;BME280;6445;52.490;13.378;2023-07-28T04:08:25;115553.88;;;-146.10;100.00
12763;BME280;6445;52.490;13.378;2023-07-28T04:10:50;115293.72;;;-146.10;100.00
12763;BME280;6445;52.490;13.378;2023-07-28T04:13:16;111856.63;;;-146.10;100.00
12763;BME280;6445;52.490;13.378;2023-07-28T04:15:41;111612.97;;;-146.10;100.00
12763;BME280;6445;52.490;13.378;2023-07-28T04:18:06;111807.91;;;-146.10;100.00
12763;BME280;6445;52.490;13.378;2023-07-28T04:20:32;111679.97;;;-146.10;100.00
12763;BME280;6445;52.490;13.378;2023-07-28T04:22:57;110252.81;;;-146.10;100.00
12763;BME280;6445;52.490;13.378;2023-07-28T04:25:22;110585.72;;;-146.10;100.00
12763;BME280;6445;52.490;13.378;2023-07-28T04:27:48;111753.06;;;-146.10;100.00
12763;BME280;6445;52.490;13.378;2023-07-28T04:30:13;108207.38;;;-146.10;100.00
12763;BME280;6445;52.490;13.378;2023-07-28T04:32:38;107166.78;;;-146.10;100.00
12763;BME280;6445;52.490;13.378;2023-07-28T04:35:04;106882.84;;;-146.10;100.00
12763;BME280;6445;52.490;13.378;2023-07-28T04:37:30;104387.06;;;-146.10;100.00
12763;BME280;6445;52.490;13.378;2023-07-28T04:39:55;102800.41;;;-146.10;100.00
12763;BME280;6445;52.490;13.378;2023-07-28T04:42:20;99934.59;;;-146.10;100.00
12763;BME280;6445;52.490;13.378;2023-07-28T04:44:46;99377.88;;;-146.10;100.00
12763;BME280;6445;52.490;13.378;2023-07-28T04:47:11;100564.28;;;-146.10;100.00
12763;BME280;6445;52.490;13.378;2023-07-28T04:49:36;99861.72;;;-146.10;100.00
12763;BME280;6445;52.490;13.378;2023-07-28T04:52:02;99981.16;;;-146.10;100.00
12763;BME280;6445;52.490;13.378;2023-07-28T04:54:27;99341.44;;;-146.10;100.00
12763;BME280;6445;52.490;13.378;2023-07-28T04:56:52;99606.63;;;-146.10;100.00
12763;BME280;6445;52.490;13.378;2023-07-28T04:59:18;99086.41;;;-146.10;100.00
12763;BME280;6445;52.490;13.378;2023-07-28T05:01:43;98552.06;;;-146.10;100.00
12763;BME280;6445;52.490;13.378;2023-07-28T05:04:08;95800.50;;;-146.10;100.00
12763;BME280;6445;52.490;13.378;2023-07-28T05:06:34;94647.81;;;-146.10;100.00
12763;BME280;6445;52.490;13.378;2023-07-28T05:08:59;93537.94;;;-146.10;100.00
12763;BME280;6445;52.490;13.378;2023-07-28T05:11:24;92648.63;;;-146.10;100.00
12763;BME280;6445;52.490;13.378;2023-07-28T05:13:49;94358.69;;;-146.10;100.00
12763;BME280;6445;52.490;13.378;2023-07-28T05:16:15;91426.13;;;-146.10;100.00
12763;BME280;6445;52.490;13.378;2023-07-28T05:18:40;88626.94;;;-146.10;100.00
12763;BME280;6445;52.490;13.378;2023-07-28T05:21:08;92323.25;;;-146.10;100.00
12763;BME280;6445;52.490;13.378;2023-07-28T05:23:33;87756.88;;;-146.10;100.00
12763;BME280;6445;52.490;13.378;2023-07-28T05:25:58;87442.00;;;-146.10;100.00
12763;BME280;6445;52.490;13.378;2023-07-28T05:28:23;86249.34;;;-146.10;100.00
12763;BME280;6445;52.490;13.378;2023-07-28T05:30:49;86255.41;;;-146.10;100.00
12763;BME280;6445;52.490;13.378;2023-07-28T05:33:14;82151.41;;;-146.10;100.00
12763;BME280;6445;52.490;13.378;2023-07-28T05:35:39;80911.94;;;-146.10;100.00
12763;BME280;6445;52.490;13.378;2023-07-28T05:38:04;80164.41;;;-146.10;100.00
12763;BME280;6445;52.490;13.378;2023-07-28T05:40:29;78383.84;;;-146.10;100.00
12763;BME280;6445;52.490;13.378;2023-07-28T05:42:55;77224.06;;;-146.10;100.00
12763;BME280;6445;52.490;13.378;2023-07-28T05:45:20;73316.31;;;-146.10;100.00
12763;BME280;6445;52.490;13.378;2023-07-28T05:47:45;72759.25;;;-146.10;100.00
12763;BME280;6445;52.490;13.378;2023-07-28T05:50:11;71842.34;;;-146.10;100.00
12763;BME280;6445;52.490;13.378;2023-07-28T05:52:36;71396.06;;;-146.10;100.00
12763;BME280;6445;52.490;13.378;2023-07-28T05:55:02;69362.16;;;-146.10;100.00
12763;BME280;6445;52.490;13.378;2023-07-28T05:57:27;68735.34;;;-146.10;100.00
12763;BME280;6445;52.490;13.378;2023-07-28T05:59:52;69426.47;;;-146.10;100.00
12763;BME280;6445;52.490;13.378;2023-07-28T06:02:17;68415.94;;;-146.10;100.00
12763;BME280;6445;52.490;13.378;2023-07-28T06:04:43;67319.28;;;-146.10;100.00
12763;BME280;6445;52.490;13.378;2023-07-28T06:07:09;65616.69;;;-146.10;100.00
12763;BME280;6445;52.490;13.378;2023-07-28T06:09:35;68026.25;;;-146.10;100.00
12763;BME280;6445;52.490;13.378;2023-07-28T06:12:00;68857.88;;;-146.10;100.00
12763;BME280;6445;52.490;13.378;2023-07-28T06:14:25;74841.13;;;-146.10;100.00
12763;BME280;6445;52.490;13.378;2023-07-28T06:16:51;79791.72;;;-146.10;100.00
12763;BME280;6445;52.490;13.378;2023-07-28T06:19:17;83766.28;;;-146.10;100.00
12763;BME280;6445;52.490;13.378;2023-07-28T06:21:49;86844.63;;;-146.10;100.00
12763;BME280;6445;52.490;13.378;2023-07-28T06:24:14;89723.38;;;-146.10;100.00
12763;BME280;6445;52.490;13.378;2023-07-28T06:26:39;89987.91;;;-146.10;100.00
12763;BME280;6445;52.490;13.378;2023-07-28T06:29:04;90133.34;;;-146.10;100.00
12763;BME280;6445;52.490;13.378;2023-07-28T06:31:30;86957.63;;;-146.10;100.00
12763;BME280;6445;52.490;13.378;2023-07-28T06:33:56;84942.06;;;-146.10;100.00
12763;BME280;6445;52.490;13.378;2023-07-28T06:36:21;82455.78;;;-146.10;100.00
12763;BME280;6445;52.490;13.378;2023-07-28T06:38:46;83070.66;;;-146.10;100.00
12763;BME280;6445;52.490;13.378;2023-07-28T06:41:14;82064.72;;;-146.10;100.00
12763;BME280;6445;52.490;13.378;2023-07-28T06:43:39;81756.34;;;-146.10;100.00
12763;BME280;6445;52.490;13.378;2023-07-28T06:46:05;78927.59;;;-146.10;100.00
12763;BME280;6445;52.490;13.378;2023-07-28T06:48:30;75412.59;;;-146.10;100.00
12763;BME280;6445;52.490;13.378;2023-07-28T06:50:55;74744.56;;;-146.10;100.00
12763;BME280;6445;52.490;13.378;2023-07-28T06:53:20;76666.44;;;-146.10;100.00
12763;BME280;6445;52.490;13.378;2023-07-28T06:55:46;72968.41;;;-146.10;100.00
12763;BME280;6445;52.490;13.378;2023-07-28T06:58:11;70855.31;;;-146.10;100.00
12763;BME280;6445;52.490;13.378;2023-07-28T07:00:37;69958.97;;;-146.10;100.00
12763;BME280;6445;52.490;13.378;2023-07-28T07:03:02;67720.94;;;-146.10;100.00
12763;BME280;6445;52.490;13.378;2023-07-28T07:05:27;60683.63;;;-146.10;100.00
12763;BME280;6445;52.490;13.378;2023-07-28T07:07:53;57411.00;;;-146.10;100.00
12763;BME280;6445;52.490;13.378;2023-07-28T07:10:19;56013.00;;;-146.10;100.00
12763;BME280;6445;52.490;13.378;2023-07-28T07:12:45;52900.28;;;-146.10;100.00
12763;BME280;6445;52.490;13.378;2023-07-28T07:15:11;49056.34;;;-146.10;100.00
12763;BME280;6445;52.490;13.378;2023-07-28T07:17:37;40984.63;;;-146.10;100.00
12763;BME280;6445;52.490;13.378;2023-07-28T07:20:03;38549.56;;;-146.10;100.00
12763;BME280;6445;52.490;13.378;2023-07-28T07:22:30;38501.72;;;-146.10;100.00
12763;BME280;6445;52.490;13.378;2023-07-28T07:24:56;36956.94;;;-146.10;100.00
12763;BME280;6445;52.490;13.378;2023-07-28T07:27:21;36285.41;;;-146.10;100.00
12763;BME280;6445;52.490;13.378;2023-07-28T07:29:48;30819.72;;;-146.10;100.00
12763;BME280;6445;52.490;13.378;2023-07-28T07:32:13;21604.06;;;-146.10;100.00
12763;BME280;6445;52.490;13.378;2023-07-28T07:34:41;13105.34;;;-146.10;100.00
12763;BME280;6445;52.490;13.378;2023-07-28T07:37:06;-3863.94;;;-146.10;100.00
12763;BME280;6445;52.490;13.378;2023-07-28T07:39:31;-9671.19;;;-146.10;100.00
12763;BME280;6445;52.490;13.378;2023-07-28T07:41:57;-9419.13;;;-146.10;100.00
12763;BME280;6445;52.490;13.378;2023-07-28T07:44:22;-9167.06;;;-146.10;100.00
12763;BME280;6445;52.490;13.378;2023-07-28T07:46:48;-8662.91;;;-146.10;100.00
12763;BME280;6445;52.490;13.378;2023-07-28T07:49:13;-8915.00;;;-146.10;100.00
12763;BME280;6445;52.490;13.378;2023-07-28T07:51:38;-8158.66;;;-146.10;100.00
12763;BME280;6445;52.490;13.378;2023-07-28T07:54:03;-7402.16;;;-146.10;100.00
12763;BME280;6445;52.490;13.378;2023-07-28T07:56:29;-6645.50;;;-146.10;100.00
12763;BME280;6445;52.490;13.378;2023-07-28T07:58:54;-5384.09;;;-146.10;100.00
12763;BME280;6445;52.490;13.378;2023-07-28T08:01:19;-5636.41;;;-146.10;100.00
12763;BME280;6445;52.490;13.378;2023-07-28T08:03:45;-6141.00;;;-146.10;100.00
12763;BME280;6445;52.490;13.378;2023-07-28T08:06:10;-2607.53;;;-146.10;100.00
12763;BME280;6445;52.490;13.378;2023-07-28T08:08:37;929.16;;;-146.10;100.00
12763;BME280;6445;52.490;13.378;2023-07-28T08:11:03;41545.22;;;-146.10;100.00
12763;BME280;6445;52.490;13.378;2023-07-28T08:13:28;50833.84;;;-146.10;100.00
12763;BME280;6445;52.490;13.378;2023-07-28T08:15:53;52618.16;;;-146.10;96.27
12763;BME280;6445;52.490;13.378;2023-07-28T08:18:19;52670.19;;;-146.10;93.98
12763;BME280;6445;52.490;13.378;2023-07-28T08:20:44;53380.56;;;-146.10;80.09
12763;BME280;6445;52.490;13.378;2023-07-28T08:23:09;53220.47;;;-146.10;79.71
12763;BME280;6445;52.490;13.378;2023-07-28T08:25:35;52764.22;;;-146.10;90.09
12763;BME280;6445;52.490;13.378;2023-07-28T08:28:01;46949.94;;;-146.10;100.00
12763;BME280;6445;52.490;13.378;2023-07-28T08:30:26;31422.66;;;-146.10;100.00
12763;BME280;6445;52.490;13.378;2023-07-28T08:32:51;13079.59;;;-146.10;100.00
12763;BME280;6445;52.490;13.378;2023-07-28T08:35:17;8518.72;;;-146.10;100.00
12763;BME280;6445;52.490;13.378;2023-07-28T08:37:43;8012.28;;;-146.10;100.00
12763;BME280;6445;52.490;13.378;2023-07-28T08:40:08;21729.13;;;-146.10;100.00
12763;BME280;6445;52.490;13.378;2023-07-28T08:42:39;25029.81;;;-146.10;100.00
12763;BME280;6445;52.490;13.378;2023-07-28T08:45:05;31603.75;;;-146.10;100.00
12763;BME280;6445;52.490;13.378;2023-07-28T08:47:32;29226.25;;;-146.10;100.00
12763;BME280;6445;52.490;13.378;2023-07-28T08:49:57;38966.28;;;-146.10;100.00
12763;BME280;6445;52.490;13.378;2023-07-28T08:52:22;34004.63;;;-146.10;100.00
12763;BME280;6445;52.490;13.378;2023-07-28T08:54:49;36273.44;;;-146.10;100.00
12763;BME280;6445;52.490;13.378;2023-07-28T08:57:14;44597.06;;;-146.10;100.00
12763;BME280;6445;52.490;13.378;2023-07-28T08:59:39;40094.97;;;-146.10;100.00
12763;BME280;6445;52.490;13.378;2023-07-28T09:02:09;31064.47;;;-146.10;100.00
12763;BME280;6445;52.490;13.378;2023-07-28T09:04:35;12065.63;;;-146.10;100.00
12763;BME280;6445;52.490;13.378;2023-07-28T09:07:04;3710.25;;;-146.10;100.00
12763;BME280;6445;52.490;13.378;2023-07-28T09:09:31;2951.56;;;-146.10;100.00
12763;BME280;6445;52.490;13.378;2023-07-28T09:11:57;2193.03;;;-146.10;100.00
12763;BME280;6445;52.490;13.378;2023-07-28T09:14:23;3457.34;;;-146.10;100.00
12763;BME280;6445;52.490;13.378;2023-07-28T09:16:51;9278.50;;;-146.10;100.00
12763;BME280;6445;52.490;13.378;2023-07-28T09:19:17;9531.78;;;-146.10;100.00
12763;BME280;6445;52.490;13.378;2023-07-28T09:21:43;7252.75;;;-146.10;100.00
12763;BME280;6445;52.490;13.378;2023-07-28T09:24:12;6493.38;;;-146.10;100.00
12763;BME280;6445;52.490;13.378;2023-07-28T09:26:39;7505.91;;;-146.10;100.00
12763;BME280;6445;52.490;13.378;2023-07-28T09:31:44;14854.75;;;-146.10;100.00
12763;BME280;6445;52.490;13.378;2023-07-28T09:34:10;26603.69;;;-146.10;100.00
12763;BME280;6445;52.490;13.378;2023-07-28T09:36:36;34383.00;;;-146.10;100.00
12763;BME280;6445;52.490;13.378;2023-07-28T09:39:04;46364.59;;;-146.10;100.00
12763;BME280;6445;52.490;13.378;2023-07-28T09:41:34;48876.44;;;-146.10;100.00
12763;BME280;6445;52.490;13.378;2023-07-28T09:43:59;50529.88;;;-146.10;100.00
12763;BME280;6445;52.490;13.378;2023-07-28T09:46:28;45156.19;;;-146.10;100.00
12763;BME280;6445;52.490;13.378;2023-07-28T09:48:56;45092.31;;;-146.10;100.00
12763;BME280;6445;52.490;13.378;2023-07-28T09:51:22;37453.19;;;-146.10;100.00
12763;BME280;6445;52.490;13.378;2023-07-28T09:53:56;52228.03;;;-146.10;100.00
12763;BME280;6445;52.490;13.378;2023-07-28T09:56:27;51919.94;;;-146.10;100.00
12763;BME280;6445;52.490;13.378;2023-07-28T09:58:55;49942.00;;;-146.10;100.00
12763;BME280;6445;52.490;13.378;2023-07-28T10:01:21;43674.69;;;-146.10;100.00
12763;BME280;6445;52.490;13.378;2023-07-28T10:03:48;37810.00;;;-146.10;100.00
12763;BME280;6445;52.490;13.378;2023-07-28T10:06:14;29337.63;;;-146.10;100.00
12763;BME280;6445;52.490;13.378;2023-07-28T10:08:42;44059.97;;;-146.10;100.00
12763;BME280;6445;52.490;13.378;2023-07-28T10:11:09;50379.91;;;-146.10;100.00
12763;BME280;6445;52.490;13.378;2023-07-28T10:13:42;44836.69;;;-146.10;100.00
12763;BME280;6445;52.490;13.378;2023-07-28T10:16:08;40677.41;;;-146.10;100.00
12763;BME280;6445;52.490;13.378;2023-07-28T10:18:39;46610.31;;;-146.10;100.00
12763;BME280;6445;52.490;13.378;2023-07-28T10:21:08;47705.25;;;-146.10;100.00
12763;BME280;6445;52.490;13.378;2023-07-28T10:23:34;50245.91;;;-146.10;100.00
12763;BME280;6445;52.490;13.378;2023-07-28T10:26:03;47715.22;;;-146.10;100.00
12763;BME280;6445;52.490;13.378;2023-07-28T10:28:34;42698.63;;;-146.10;100.00
12763;BME280;6445;52.490;13.378;2023-07-28T10:31:03;32786.09;;;-146.10;100.00
12763;BME280;6445;52.490;13.378;2023-07-28T10:33:33;10038.41;;;-146.10;100.00
12763;BME280;6445;52.490;13.378;2023-07-28T10:38:59;7505.91;;;-146.10;100.00
12763;BME280;6445;52.490;13.378;2023-07-28T10:41:24;6746.47;;;-146.10;100.00
12763;BME280;6445;52.490;13.378;2023-07-28T10:43:51;6240.28;;;-146.10;100.00
12763;BME280;6445;52.490;13.378;2023-07-28T10:46:18;17645.88;;;-146.10;100.00
12763;BME280;6445;52.490;13.378;2023-07-28T10:48:48;13840.28;;;-146.10;100.00
12763;BME280;6445;52.490;13.378;2023-07-28T10:51:24;17929.47;;;-146.10;100.00
12763;BME280;6445;52.490;13.378;2023-07-28T10:54:00;17271.09;;;-146.10;100.00
12763;BME280;6445;52.490;13.378;2023-07-28T10:56:27;22602.69;;;-146.10;100.00
12763;BME280;6445;52.490;13.378;2023-07-28T10:59:03;29017.41;;;-146.10;100.00
12763;BME280;6445;52.490;13.378;2023-07-28T11:01:33;27068.81;;;-146.10;100.00
12763;BME280;6445;52.490;13.378;2023-07-28T11:04:15;24008.72;;;-146.10;100.00
12763;BME280;6445;52.490;13.378;2023-07-28T11:06:50;23853.81;;;-146.10;100.00
12763;BME280;6445;52.490;13.378;2023-07-28T11:09:17;32702.47;;;-146.10;100.00
12763;BME280;6445;52.490;13.378;2023-07-28T11:11:44;29803.06;;;-146.10;100.00
12763;BME280;6445;52.490;13.378;2023-07-28T11:14:09;15869.47;;;-146.10;100.00
12763;BME280;6445;52.490;13.378;2023-07-28T11:16:36;12319.09;;;-146.10;100.00
12763;BME280;6445;52.490;13.378;2023-07-28T11:19:02;10545.13;;;-146.10;100.00
12763;BME280;6445;52.490;13.378;2023-07-28T11:21:28;8012.28;;;-146.10;100.00
12763;BME280;6445;52.490;13.378;2023-07-28T11:23:53;7759.09;;;-146.10;100.00
12763;BME280;6445;52.490;13.378;2023-07-28T11:26:20;9947.38;;;-146.10;100.00
12763;BME280;6445;52.490;13.378;2023-07-28T11:28:46;56852.13;;;-146.10;100.00
12763;BME280;6445;52.490;13.378;2023-07-28T11:31:11;60052.13;;;-146.10;100.00
12763;BME280;6445;52.490;13.378;2023-07-28T11:33:36;78464.38;;;-146.10;100.00
12763;BME280;6445;52.490;13.378;2023-07-28T11:36:02;81520.53;;;-146.10;100.00
12763;BME280;6445;52.490;13.378;2023-07-28T11:38:28;83965.91;;;-146.10;100.00
12763;BME280;6445;52.490;13.378;2023-07-28T11:40:54;69028.66;;;-146.10;100.00
12763;BME280;6445;52.490;13.378;2023-07-28T11:43:22;57571.25;;;-146.10;100.00
12763;BME280;6445;52.490;13.378;2023-07-28T11:45:48;48930.41;;;-146.10;100.00
12763;BME280;6445;52.490;13.378;2023-07-28T11:48:14;38499.72;;;-146.10;100.00
12763;BME280;6445;52.490;13.378;2023-07-28T11:50:41;26379.09;;;-146.10;100.00
12763;BME280;6445;52.490;13.378;2023-07-28T11:53:08;6341.13;;;-146.10;100.00
12763;BME280;6445;52.490;13.378;2023-07-28T11:55:37;17643.88;;;-146.10;100.00
12763;BME280;6445;52.490;13.378;2023-07-28T11:58:04;29522.59;;;-146.10;100.00
12763;BME280;6445;52.490;13.378;2023-07-28T12:00:35;24858.97;;;-146.10;100.00
12763;BME280;6445;52.490;13.378;2023-07-28T12:03:08;9098.44;;;-146.10;100.00
12763;BME280;6445;52.490;13.378;2023-07-28T12:05:49;-4246.50;;;-146.10;100.00
12763;BME280;6445;52.490;13.378;2023-07-28T12:08:38;-5131.78;;;-146.10;100.00
12763;BME280;6445;52.490;13.378;2023-07-28T12:11:04;-5384.09;;;-146.10;100.00
12763;BME280;6445;52.490;13.378;2023-07-28T12:13:29;-5131.78;;;-146.10;100.00
12763;BME280;6445;52.490;13.378;2023-07-28T12:15:54;-3617.44;;;-146.10;100.00
12763;BME280;6445;52.490;13.378;2023-07-28T12:18:20;-3112.53;;;-146.10;100.00
12763;BME280;6445;52.490;13.378;2023-07-28T12:20:46;2193.03;;;-146.10;100.00
12763;BME280;6445;52.490;13.378;2023-07-28T12:23:22;-2102.50;;;-146.10;100.00
12763;BME280;6445;52.490;13.378;2023-07-28T12:25:48;2445.88;;;-146.10;100.00
12763;BME280;6445;52.490;13.378;2023-07-28T12:28:15;-334.34;;;-146.10;100.00
12763;BME280;6445;52.490;13.378;2023-07-28T12:30:40;3457.34;;;-146.10;100.00
12763;BME280;6445;52.490;13.378;2023-07-28T12:33:06;3457.34;;;-146.10;100.00